Villa del Carmen, Argentina
Current Conditions -  °F | °C
As of 6:00 AM on Monday 20 Oct 2014 (Local Time) from SAOC Reporting Station
Clear Clear  
Wind Chill: 57°   Ceiling: Unl
Heat Index: 57°   Visibility: 6mi
Dew Point: 39°   Wind: 12mph
Humidity: 51%   Direction: 360°N
Pressure: 30.06"   Gusts: NA
Location:  32.95°S, 65.05°W
Report Text: SAOC 200900Z 36010KT CAVOK 14/04 Q1018
Loading
Personal Weather Stations






























Interactive Weather Map
Tropical Storm Tracking
New forecast layout! Learn more

10-Day Weather Forecast

Advertisements
Track Severe Weather on mobile